createdAt,value
2023-03-01T00:01:22.324Z,6.20
2023-03-01T00:03:50.621Z,6.40
2023-03-01T00:06:20.664Z,5.10
2023-03-01T00:08:49.638Z,6.10
2023-03-01T00:11:20.047Z,6.50
2023-03-01T00:13:49.312Z,6.40
2023-03-01T00:16:19.841Z,6.70
2023-03-01T00:18:48.298Z,6.70
2023-03-01T00:21:16.647Z,7.10
2023-03-01T00:23:46.090Z,8.10
2023-03-01T00:26:16.040Z,7.80
2023-03-01T00:28:44.877Z,8.60
2023-03-01T00:31:15.562Z,7.30
2023-03-01T00:33:44.398Z,7.90
2023-03-01T00:36:14.791Z,8.40
2023-03-01T00:38:46.175Z,7.20
2023-03-01T00:41:16.924Z,13.60
2023-03-01T00:43:45.629Z,8.20
2023-03-01T00:46:15.831Z,7.60
2023-03-01T00:48:44.164Z,8.60
2023-03-01T00:51:14.654Z,8.80
2023-03-01T00:53:43.464Z,10.20
2023-03-01T00:56:14.956Z,9.60
2023-03-01T00:58:43.479Z,19.70
2023-03-01T01:01:18.290Z,8.90
2023-03-01T01:03:48.492Z,9.40
2023-03-01T01:06:18.901Z,10.10
2023-03-01T01:08:47.074Z,10.60
2023-03-01T01:11:17.109Z,9.20
2023-03-01T01:13:47.286Z,10.70
2023-03-01T01:16:15.794Z,10.50
2023-03-01T01:18:44.015Z,10.10
2023-03-01T01:21:14.329Z,11.30
2023-03-01T01:23:43.321Z,10.80
2023-03-01T01:26:13.309Z,11.90
2023-03-01T01:28:43.002Z,12.40
2023-03-01T01:31:11.183Z,13.10
2023-03-01T01:33:39.856Z,13.30
2023-03-01T01:36:09.554Z,12.60
2023-03-01T01:38:38.885Z,11.40
2023-03-01T01:41:07.859Z,13.20
2023-03-01T01:43:37.917Z,12.30
2023-03-01T01:46:15.236Z,12.70
2023-03-01T01:48:49.919Z,12.70
2023-03-01T01:51:26.041Z,13.70
2023-03-01T01:53:58.666Z,13.00
2023-03-01T01:56:31.396Z,13.50
2023-03-01T01:59:00.125Z,15.00
2023-03-01T02:01:29.741Z,13.80
2023-03-01T02:03:57.914Z,14.70
2023-03-01T02:06:30.685Z,15.70
2023-03-01T02:09:02.144Z,16.40
2023-03-01T02:11:32.374Z,16.80
2023-03-01T02:14:00.707Z,17.00
2023-03-01T02:16:30.672Z,18.10
2023-03-01T02:19:00.300Z,18.00
2023-03-01T02:21:44.073Z,25.40
2023-03-01T02:24:26.728Z,18.80
2023-03-01T02:26:58.120Z,19.80
2023-03-01T02:29:29.040Z,21.30
2023-03-01T02:31:58.609Z,23.70
2023-03-01T02:34:28.320Z,23.20
2023-03-01T02:36:59.419Z,24.10
2023-03-01T02:39:30.462Z,24.20
2023-03-01T02:42:00.012Z,25.00
2023-03-01T02:44:29.503Z,25.30
2023-03-01T02:47:00.125Z,25.90
2023-03-01T02:49:32.834Z,26.40
2023-03-01T02:52:27.456Z,26.40
2023-03-01T02:55:01.850Z,26.20
2023-03-01T02:57:32.194Z,26.80
2023-03-01T03:00:08.130Z,27.10
2023-03-01T03:02:39.913Z,26.70
2023-03-01T03:05:11.388Z,27.50
2023-03-01T03:07:41.754Z,28.50
2023-03-01T03:10:13.254Z,29.20
2023-03-01T03:12:41.656Z,29.60
2023-03-01T03:15:13.621Z,29.50
2023-03-01T03:17:45.323Z,31.10
2023-03-01T03:20:20.072Z,45.40
2023-03-01T03:22:48.999Z,31.80
2023-03-01T03:25:18.064Z,30.80
2023-03-01T03:27:48.461Z,32.00
2023-03-01T03:30:20.607Z,32.90
2023-03-01T03:32:53.392Z,32.60
2023-03-01T03:35:22.753Z,46.40
2023-03-01T03:38:07.394Z,32.90
2023-03-01T03:40:38.475Z,32.90
2023-03-01T03:43:08.480Z,33.50
2023-03-01T03:45:38.517Z,33.00
2023-03-01T03:48:09.009Z,33.30
2023-03-01T03:50:37.529Z,33.90
2023-03-01T03:53:08.030Z,34.40
2023-03-01T03:55:36.519Z,35.50
2023-03-01T03:58:07.883Z,35.60
2023-03-01T04:00:39.217Z,35.70
2023-03-01T04:03:07.628Z,35.40
2023-03-01T04:05:37.314Z,35.70
2023-03-01T04:08:08.206Z,35.40
2023-03-01T04:10:38.887Z,35.10
2023-03-01T04:13:08.083Z,36.50
2023-03-01T04:15:37.800Z,35.30
2023-03-01T04:18:06.984Z,51.40
2023-03-01T04:20:37.158Z,37.10
2023-03-01T04:23:17.098Z,37.20
2023-03-01T04:25:50.528Z,37.40
2023-03-01T04:28:18.758Z,38.60
2023-03-01T04:30:48.196Z,38.50
2023-03-01T04:33:16.392Z,38.00
2023-03-01T04:35:44.600Z,38.20
2023-03-01T04:38:12.722Z,39.40
2023-03-01T04:40:43.465Z,40.00
2023-03-01T04:43:12.221Z,39.80
2023-03-01T04:45:40.389Z,41.40
2023-03-01T04:48:10.282Z,39.90
2023-03-01T04:50:38.486Z,39.00
2023-03-01T04:53:06.558Z,40.20
2023-03-01T04:55:35.851Z,41.50
2023-03-01T04:58:04.358Z,40.60
2023-03-01T05:00:32.445Z,41.00
2023-03-01T05:03:02.832Z,41.20
2023-03-01T05:05:35.232Z,41.20
2023-03-01T05:08:06.124Z,41.50
2023-03-01T05:10:36.252Z,42.80
2023-03-01T05:13:05.672Z,42.10
2023-03-01T05:15:34.404Z,42.20
2023-03-01T05:18:02.738Z,41.60
2023-03-01T05:20:32.828Z,43.00
2023-03-01T05:23:06.345Z,42.40
2023-03-01T05:25:41.083Z,42.20
2023-03-01T05:28:13.508Z,44.10
2023-03-01T05:30:41.801Z,43.80
2023-03-01T05:33:14.402Z,44.90
2023-03-01T05:35:45.081Z,44.00
2023-03-01T05:38:15.148Z,43.30
2023-03-01T05:40:44.558Z,43.30
2023-03-01T05:43:14.073Z,45.50
2023-03-01T05:45:43.236Z,44.50
2023-03-01T05:48:13.467Z,45.00
2023-03-01T05:50:45.417Z,45.80
2023-03-01T05:53:15.848Z,48.80
2023-03-01T05:55:45.167Z,47.20
2023-03-01T05:58:16.052Z,47.70
2023-03-01T06:00:45.149Z,47.00
2023-03-01T06:03:14.492Z,47.30
2023-03-01T06:05:44.823Z,48.30
2023-03-01T06:08:14.137Z,46.90
2023-03-01T06:10:42.606Z,47.20
2023-03-01T06:13:10.819Z,49.20
2023-03-01T06:15:39.104Z,49.50
2023-03-01T06:18:07.244Z,48.10
2023-03-01T06:20:35.306Z,50.10
2023-03-01T06:23:05.136Z,50.20
2023-03-01T06:25:33.283Z,50.60
2023-03-01T06:28:01.450Z,52.00
2023-03-01T06:30:29.630Z,52.20
2023-03-01T06:33:02.333Z,50.50
2023-03-01T06:35:32.215Z,52.00
2023-03-01T06:38:01.623Z,51.30
2023-03-01T06:40:32.183Z,52.60
2023-03-01T06:43:01.909Z,52.80
2023-03-01T06:45:30.045Z,54.10
2023-03-01T06:48:05.528Z,52.80
2023-03-01T06:50:34.119Z,53.30
2023-03-01T06:53:02.610Z,54.40
2023-03-01T06:55:32.156Z,53.60
2023-03-01T06:58:01.400Z,53.70
2023-03-01T07:00:30.266Z,53.40
2023-03-01T07:03:03.038Z,52.10
2023-03-01T07:05:31.882Z,52.50
2023-03-01T07:08:00.144Z,52.20
2023-03-01T07:10:28.469Z,52.10
2023-03-01T07:12:59.287Z,51.70
2023-03-01T07:15:28.317Z,51.00
2023-03-01T07:17:56.896Z,49.40
2023-03-01T07:20:26.643Z,50.50
2023-03-01T07:22:55.494Z,50.80
2023-03-01T07:25:23.734Z,50.00
2023-03-01T07:27:53.309Z,66.20
2023-03-01T07:30:23.680Z,51.10
2023-03-01T07:32:53.604Z,51.20
2023-03-01T07:35:23.780Z,49.20
2023-03-01T07:37:52.063Z,48.00
2023-03-01T07:40:20.391Z,49.60
2023-03-01T07:42:48.582Z,51.30
2023-03-01T07:45:16.659Z,54.40
2023-03-01T07:47:46.168Z,53.60
2023-03-01T07:50:14.553Z,52.30
2023-03-01T07:52:42.755Z,53.00
2023-03-01T07:55:11.337Z,54.80
2023-03-01T07:57:39.436Z,52.60
2023-03-01T08:00:09.472Z,52.40
2023-03-01T08:02:37.646Z,51.00
2023-03-01T08:05:07.870Z,52.50
2023-03-01T08:07:35.999Z,48.80
2023-03-01T08:10:04.177Z,51.30
2023-03-01T08:12:32.359Z,52.70
2023-03-01T08:15:00.516Z,49.70
2023-03-01T08:17:28.654Z,51.60
2023-03-01T08:19:56.852Z,50.00
2023-03-01T08:22:26.372Z,48.50
2023-03-01T08:24:56.791Z,44.10
2023-03-01T08:27:25.607Z,44.70
2023-03-01T08:29:53.850Z,40.10
2023-03-01T08:32:22.089Z,42.60
2023-03-01T08:34:50.939Z,43.20
2023-03-01T08:37:19.077Z,42.50
2023-03-01T08:39:48.940Z,41.70
2023-03-01T08:42:17.136Z,43.60
2023-03-01T08:44:46.886Z,45.10
2023-03-01T08:47:15.934Z,58.30
2023-03-01T08:49:44.041Z,44.40
2023-03-01T08:52:12.160Z,39.80
2023-03-01T08:54:40.452Z,37.10
2023-03-01T08:57:10.683Z,40.40
2023-03-01T08:59:39.220Z,42.60
2023-03-01T09:02:08.124Z,45.50
2023-03-01T09:04:36.261Z,41.20
2023-03-01T09:07:04.335Z,44.40
2023-03-01T09:09:32.513Z,45.60
2023-03-01T09:12:00.699Z,43.10
2023-03-01T09:14:30.208Z,41.70
2023-03-01T09:16:58.374Z,38.10
2023-03-01T09:19:27.514Z,43.40
2023-03-01T09:21:56.932Z,46.40
2023-03-01T09:24:26.438Z,51.90
2023-03-01T09:26:58.395Z,55.30
2023-03-01T09:29:26.941Z,49.10
2023-03-01T09:31:57.187Z,54.70
2023-03-01T09:34:25.678Z,60.80
2023-03-01T09:36:53.993Z,68.10
2023-03-01T09:39:22.844Z,62.10
2023-03-01T09:41:56.899Z,56.50
2023-03-01T09:44:40.191Z,60.20
2023-03-01T09:47:14.498Z,71.50
2023-03-01T09:49:49.598Z,70.00
2023-03-01T09:52:28.798Z,70.70
2023-03-01T09:55:00.361Z,75.60
2023-03-01T09:57:35.086Z,78.30
2023-03-01T10:00:21.953Z,85.20
2023-03-01T10:03:00.465Z,82.70
2023-03-01T10:05:43.638Z,77.10
2023-03-01T10:08:30.535Z,73.20
2023-03-01T10:10:59.403Z,72.40
2023-03-01T10:13:33.477Z,56.10
2023-03-01T10:16:08.064Z,57.80
2023-03-01T10:18:39.102Z,60.30
2023-03-01T10:21:16.820Z,60.80
2023-03-01T10:23:45.375Z,64.70
2023-03-01T10:26:40.049Z,68.80
2023-03-01T10:29:09.890Z,74.10
2023-03-01T10:31:44.994Z,86.70
2023-03-01T10:34:17.128Z,92.30
2023-03-01T10:36:49.336Z,94.60
2023-03-01T10:39:20.204Z,85.20
2023-03-01T10:41:57.189Z,93.00
2023-03-01T10:44:46.244Z,99.90
2023-03-01T10:47:23.220Z,99.90
2023-03-01T10:50:01.226Z,98.70
2023-03-01T10:52:33.234Z,99.90
2023-03-01T10:55:04.085Z,99.90
2023-03-01T10:57:40.011Z,99.90
2023-03-01T11:00:20.630Z,99.90
2023-03-01T11:02:51.316Z,99.90
2023-03-01T11:05:25.336Z,99.90
2023-03-01T11:07:55.119Z,99.90
2023-03-01T11:10:26.071Z,99.90
2023-03-01T11:12:55.638Z,99.90
2023-03-01T11:15:29.856Z,99.90
2023-03-01T11:18:09.273Z,99.90
2023-03-01T11:20:44.052Z,99.90
2023-03-01T11:23:15.169Z,99.90
2023-03-01T11:25:48.178Z,99.90
2023-03-01T11:28:18.884Z,99.90
2023-03-01T11:31:06.757Z,99.90
2023-03-01T11:33:41.709Z,99.90
2023-03-01T11:36:18.803Z,99.90
2023-03-01T11:38:47.674Z,99.90
2023-03-01T11:41:18.997Z,98.80
2023-03-01T11:43:53.729Z,69.80
2023-03-01T11:46:52.948Z,45.60
2023-03-01T11:49:48.850Z,31.60
2023-03-01T11:52:28.409Z,24.20
2023-03-01T11:55:10.847Z,21.30
2023-03-01T11:57:51.840Z,16.30
2023-03-01T12:00:36.823Z,14.10
2023-03-01T12:03:25.867Z,10.60
2023-03-01T12:06:29.214Z,8.80
2023-03-01T12:09:16.315Z,9.10
2023-03-01T12:12:03.890Z,6.80
2023-03-01T12:14:51.752Z,6.50
2023-03-01T12:17:38.318Z,5.60
2023-03-01T12:20:23.420Z,5.50
2023-03-01T12:23:20.429Z,6.50
2023-03-01T12:25:57.411Z,6.00
2023-03-01T12:28:38.650Z,7.70
2023-03-01T12:31:27.369Z,6.10
2023-03-01T12:34:02.620Z,5.90
2023-03-01T12:37:02.152Z,7.30
2023-03-01T12:39:44.009Z,6.30
2023-03-01T12:42:23.296Z,3.00
2023-03-01T12:45:07.610Z,3.10
2023-03-01T12:48:00.515Z,2.50
2023-03-01T12:50:38.745Z,4.60
2023-03-01T12:53:06.898Z,5.60
2023-03-01T12:55:38.313Z,5.50
2023-03-01T12:58:22.003Z,6.20
2023-03-01T13:01:02.699Z,6.40
2023-03-01T13:03:40.882Z,6.50
2023-03-01T13:06:14.296Z,6.90
2023-03-01T13:08:50.444Z,6.00
2023-03-01T13:11:21.563Z,5.50
2023-03-01T13:13:52.683Z,5.50
2023-03-01T13:16:43.854Z,5.70
2023-03-01T13:19:16.670Z,6.40
2023-03-01T13:21:46.201Z,5.50
2023-03-01T13:24:28.484Z,5.90
2023-03-01T13:27:13.709Z,6.50
2023-03-01T13:29:49.834Z,7.00
2023-03-01T13:32:34.691Z,6.80
2023-03-01T13:35:47.312Z,4.70
2023-03-01T13:38:42.062Z,4.30
2023-03-01T13:41:11.090Z,1.90
2023-03-01T13:43:41.018Z,1.10
2023-03-01T13:46:19.150Z,2.10
2023-03-01T13:48:51.577Z,2.30
2023-03-01T13:51:25.844Z,1.90
2023-03-01T13:53:56.015Z,2.10
2023-03-01T13:56:27.942Z,1.30
2023-03-01T13:59:00.109Z,1.50
2023-03-01T14:01:35.639Z,3.80
2023-03-01T14:04:05.771Z,4.20
2023-03-01T14:06:37.261Z,4.30
2023-03-01T14:09:11.797Z,5.00
2023-03-01T14:12:09.057Z,13.50
2023-03-01T14:14:48.731Z,4.90
2023-03-01T14:17:43.632Z,5.40
2023-03-01T14:20:18.552Z,5.30
2023-03-01T14:22:47.546Z,5.10
2023-03-01T14:25:23.522Z,4.00
2023-03-01T14:27:59.270Z,3.10
2023-03-01T14:30:32.376Z,3.30
2023-03-01T14:33:04.701Z,3.70
2023-03-01T14:35:34.840Z,2.50
2023-03-01T14:38:03.724Z,1.00
2023-03-01T14:40:34.246Z,1.00
2023-03-01T14:43:04.528Z,1.00
2023-03-01T14:45:33.044Z,1.00
2023-03-01T14:48:04.943Z,1.00
2023-03-01T14:50:34.410Z,1.00
2023-03-01T14:53:05.255Z,1.00
2023-03-01T14:55:37.884Z,1.00
2023-03-01T14:58:07.272Z,1.00
2023-03-01T15:00:36.397Z,1.00
2023-03-01T15:03:14.304Z,1.00
2023-03-01T15:05:45.083Z,1.00
2023-03-01T15:08:19.919Z,1.00
2023-03-01T15:11:00.111Z,1.00
2023-03-01T15:13:32.921Z,1.00
2023-03-01T15:16:08.114Z,1.00
2023-03-01T15:18:38.541Z,1.00
2023-03-01T15:21:12.077Z,1.00
2023-03-01T15:23:42.304Z,1.00
2023-03-01T15:26:25.892Z,1.00
2023-03-01T15:28:59.163Z,1.00
2023-03-01T15:31:29.513Z,1.00
2023-03-01T15:34:14.465Z,1.00
2023-03-01T15:36:46.022Z,1.00
2023-03-01T15:39:38.355Z,1.00
2023-03-01T15:42:08.979Z,1.00
2023-03-01T15:44:43.860Z,1.00
2023-03-01T15:47:29.530Z,1.00
2023-03-01T15:50:01.776Z,1.00
2023-03-01T15:52:36.062Z,1.00
2023-03-01T15:55:07.272Z,1.00
2023-03-01T15:57:35.489Z,1.00
2023-03-01T16:00:12.185Z,1.00
2023-03-01T16:02:40.569Z,1.00
2023-03-01T16:05:20.374Z,1.00
2023-03-01T16:07:48.570Z,1.00
2023-03-01T16:10:16.974Z,1.00
2023-03-01T16:12:45.191Z,1.00
2023-03-01T16:15:19.156Z,1.00
2023-03-01T16:17:48.536Z,1.00
2023-03-01T16:20:28.003Z,1.00
2023-03-01T16:22:58.848Z,1.00
2023-03-01T16:25:26.924Z,1.00
2023-03-01T16:27:56.325Z,1.00
2023-03-01T16:30:25.221Z,1.00
2023-03-01T16:32:54.124Z,1.00
2023-03-01T16:35:24.506Z,1.00
2023-03-01T16:37:53.597Z,1.00
2023-03-01T16:40:23.830Z,1.00
2023-03-01T16:42:52.619Z,1.00
2023-03-01T16:45:25.368Z,1.00
2023-03-01T16:47:55.816Z,1.00
2023-03-01T16:50:25.589Z,1.00
2023-03-01T16:52:53.652Z,1.00
2023-03-01T16:55:21.905Z,1.00
2023-03-01T16:57:50.004Z,1.00
2023-03-01T17:00:18.904Z,1.00
2023-03-01T17:02:47.323Z,1.00
2023-03-01T17:05:15.571Z,1.00
2023-03-01T17:07:45.111Z,1.00
2023-03-01T17:10:13.454Z,1.00
2023-03-01T17:12:41.612Z,1.00
2023-03-01T17:15:12.964Z,1.00
2023-03-01T17:17:41.168Z,1.00
2023-03-01T17:20:10.662Z,1.00
2023-03-01T17:22:38.948Z,1.00
2023-03-01T17:25:09.994Z,1.00
2023-03-01T17:27:38.718Z,1.00
2023-03-01T17:30:08.859Z,1.00
2023-03-01T17:32:37.255Z,1.00
2023-03-01T17:35:06.330Z,1.00
2023-03-01T17:37:34.547Z,1.00
2023-03-01T17:40:02.639Z,1.00
2023-03-01T17:42:32.175Z,1.00
2023-03-01T17:45:00.633Z,1.00
2023-03-01T17:47:28.818Z,1.00
2023-03-01T17:49:56.879Z,1.00
2023-03-01T17:52:25.069Z,1.00
2023-03-01T17:54:53.280Z,1.00
2023-03-01T17:57:21.455Z,1.00
2023-03-01T17:59:51.024Z,1.00
2023-03-01T18:02:20.562Z,1.00
2023-03-01T18:04:48.780Z,1.00
2023-03-01T18:07:16.849Z,1.00
2023-03-01T18:09:45.016Z,1.00
2023-03-01T18:12:13.221Z,1.00
2023-03-01T18:14:41.438Z,1.00
2023-03-01T18:17:12.136Z,1.00
2023-03-01T18:19:41.225Z,1.00
2023-03-01T18:22:10.126Z,1.00
2023-03-01T18:24:39.275Z,1.00
2023-03-01T18:27:07.822Z,1.00
2023-03-01T18:29:37.881Z,1.00
2023-03-01T18:32:06.932Z,1.00
2023-03-01T18:34:36.644Z,1.00
2023-03-01T18:37:11.906Z,1.00
2023-03-01T18:39:41.754Z,1.00
2023-03-01T18:42:10.388Z,1.00
2023-03-01T18:44:38.922Z,1.00
2023-03-01T18:47:07.024Z,1.00
2023-03-01T18:49:36.453Z,1.00
2023-03-01T18:52:04.699Z,1.00
2023-03-01T18:54:35.346Z,1.00
2023-03-01T18:57:03.597Z,1.00
2023-03-01T18:59:31.695Z,1.00
2023-03-01T19:01:59.913Z,1.00
2023-03-01T19:04:28.096Z,1.00
2023-03-01T19:06:57.990Z,1.00
2023-03-01T19:09:26.090Z,1.00
2023-03-01T19:11:58.684Z,1.00
2023-03-01T19:14:26.842Z,1.00
2023-03-01T19:16:54.977Z,1.00
2023-03-01T19:19:23.108Z,1.00
2023-03-01T19:22:04.837Z,1.00
2023-03-01T19:24:34.915Z,1.00
2023-03-01T19:27:03.167Z,1.00
2023-03-01T19:29:31.378Z,1.00
2023-03-01T19:31:59.655Z,1.00
2023-03-01T19:34:27.903Z,1.00
2023-03-01T19:36:56.053Z,1.00
2023-03-01T19:39:24.768Z,1.00
2023-03-01T19:41:54.349Z,1.00
2023-03-01T19:44:24.946Z,1.00
2023-03-01T19:46:54.325Z,1.00
2023-03-01T19:49:22.575Z,1.00
2023-03-01T19:51:50.775Z,1.00
2023-03-01T19:54:20.163Z,1.00
2023-03-01T19:56:48.724Z,1.00
2023-03-01T19:59:19.362Z,1.00
2023-03-01T20:01:47.521Z,1.00
2023-03-01T20:04:15.742Z,1.00
2023-03-01T20:06:46.701Z,1.00
2023-03-01T20:09:21.931Z,1.00
2023-03-01T20:11:50.844Z,1.00
2023-03-01T20:14:23.718Z,1.00
2023-03-01T20:16:52.675Z,1.00
2023-03-01T20:19:21.269Z,1.00
2023-03-01T20:21:49.430Z,1.00
2023-03-01T20:24:17.502Z,1.00
2023-03-01T20:26:45.665Z,1.00
2023-03-01T20:29:13.930Z,1.00
2023-03-01T20:31:43.478Z,1.00
2023-03-01T20:34:11.676Z,1.00
2023-03-01T20:36:41.030Z,1.00
2023-03-01T20:39:09.749Z,1.00
2023-03-01T20:41:37.872Z,1.00
2023-03-01T20:44:06.727Z,1.00
2023-03-01T20:46:35.894Z,1.00
2023-03-01T20:49:06.429Z,1.00
2023-03-01T20:51:34.550Z,1.00
2023-03-01T20:54:03.204Z,1.00
2023-03-01T20:56:31.473Z,1.00
2023-03-01T20:58:59.919Z,1.00
2023-03-01T21:01:28.033Z,1.00
2023-03-01T21:03:56.231Z,1.00
2023-03-01T21:06:25.796Z,1.00
2023-03-01T21:08:55.016Z,1.00
2023-03-01T21:11:25.312Z,1.00
2023-03-01T21:13:53.826Z,1.00
2023-03-01T21:16:22.700Z,1.00
2023-03-01T21:18:51.275Z,1.00
2023-03-01T21:21:21.501Z,1.00
2023-03-01T21:23:51.034Z,1.00
2023-03-01T21:26:21.165Z,1.00
2023-03-01T21:28:50.279Z,1.00
2023-03-01T21:31:19.989Z,1.00
2023-03-01T21:33:49.808Z,1.00
2023-03-01T21:36:18.513Z,1.00
2023-03-01T21:38:48.822Z,1.00
2023-03-01T21:41:19.865Z,1.00
2023-03-01T21:43:49.781Z,1.00
2023-03-01T21:46:19.989Z,1.00
2023-03-01T21:48:49.440Z,1.00
2023-03-01T21:51:19.335Z,1.00
2023-03-01T21:53:47.947Z,1.00
2023-03-01T21:56:19.406Z,1.00
2023-03-01T21:58:47.609Z,1.00
2023-03-01T22:01:17.604Z,1.00
2023-03-01T22:03:46.293Z,1.00
2023-03-01T22:06:19.485Z,1.00
2023-03-01T22:08:49.225Z,1.00
2023-03-01T22:11:20.185Z,1.00
2023-03-01T22:13:51.653Z,1.00
2023-03-01T22:16:21.694Z,1.00
2023-03-01T22:18:50.542Z,1.00
2023-03-01T22:21:19.453Z,1.00
2023-03-01T22:23:47.858Z,1.00
2023-03-01T22:26:26.315Z,1.00
2023-03-01T22:28:56.328Z,1.00
2023-03-01T22:31:24.655Z,1.00
2023-03-01T22:33:53.593Z,1.60
2023-03-01T22:36:22.157Z,1.30
2023-03-01T22:38:52.285Z,2.90
2023-03-01T22:41:20.399Z,2.90
2023-03-01T22:43:49.859Z,3.20
2023-03-01T22:46:20.331Z,4.00
2023-03-01T22:48:49.071Z,4.70
2023-03-01T22:51:17.538Z,4.80
2023-03-01T22:53:46.102Z,6.10
2023-03-01T22:56:15.674Z,6.30
2023-03-01T22:58:44.299Z,7.00
2023-03-01T23:01:16.699Z,7.20
2023-03-01T23:03:45.721Z,6.90
2023-03-01T23:06:14.966Z,7.70
2023-03-01T23:08:43.471Z,8.30
2023-03-01T23:11:13.410Z,9.40
2023-03-01T23:13:42.055Z,9.50
2023-03-01T23:16:10.815Z,9.90
2023-03-01T23:18:40.511Z,11.20
2023-03-01T23:21:10.119Z,11.40
2023-03-01T23:23:38.667Z,11.70
2023-03-01T23:26:07.606Z,12.60
2023-03-01T23:28:38.609Z,12.60
2023-03-01T23:31:08.315Z,13.20
2023-03-01T23:33:38.689Z,13.50
2023-03-01T23:36:15.755Z,13.80
2023-03-01T23:38:43.947Z,14.70
2023-03-01T23:41:12.397Z,15.20
2023-03-01T23:43:40.616Z,14.40
2023-03-01T23:46:10.211Z,15.20
2023-03-01T23:48:38.283Z,15.40
2023-03-01T23:51:08.787Z,16.60
2023-03-01T23:53:40.464Z,17.40
2023-03-01T23:56:09.702Z,18.50
2023-03-01T23:58:37.737Z,17.70
